Time;durP1;ratioP1;P1;durP2;ratioP2;P2;SDS_P1;SDS_P2;PMS_P1;PMS_P2;Temp;Humidity;BMP_temperature;BMP_pressure;BME280_temperature;BME280_humidity;BME280_pressure;Samples;Min_cycle;Max_cycle;Signal;HPM_P1;HPM_P2
2021/10/21 00:01:20;;;;;;;4.70;3.25;;;;;;;13.97;99.08;98798.69;5089833;28;20044;-86
2021/10/21 00:03:49;;;;;;;3.50;3.20;;;;;;;13.92;99.17;98799.88;5074172;28;20491;-87
2021/10/21 00:06:16;;;;;;;3.53;3.22;;;;;;;13.89;99.48;98800.88;5075662;28;20043;-87
2021/10/21 00:08:44;;;;;;;6.32;3.15;;;;;;;13.86;99.86;98794.00;5089180;28;20663;-87
2021/10/21 00:11:13;;;;;;;2.97;2.65;;;;;;;13.84;99.70;98780.06;5102749;28;20040;-86
2021/10/21 00:13:43;;;;;;;4.53;3.30;;;;;;;13.81;100.00;98764.47;5081318;28;20048;-87
2021/10/21 00:16:13;;;;;;;3.50;2.80;;;;;;;13.80;100.00;98748.75;5072723;28;20040;-87
2021/10/21 00:18:45;;;;;;;4.18;3.70;;;;;;;13.80;100.00;98746.97;5081077;28;20077;-87
2021/10/21 00:21:19;;;;;;;4.13;3.50;;;;;;;13.82;99.86;98733.72;5079528;28;20143;-87
2021/10/21 00:23:46;;;;;;;4.70;3.55;;;;;;;13.86;99.75;98743.19;5089966;28;20139;-87
2021/10/21 00:26:14;;;;;;;3.15;2.95;;;;;;;13.84;99.82;98722.19;5084612;28;20044;-89
2021/10/21 00:28:46;;;;;;;3.75;3.03;;;;;;;13.85;99.99;98712.56;5074969;28;20052;-87
2021/10/21 00:31:16;;;;;;;3.90;3.08;;;;;;;13.91;99.93;98706.97;5074371;27;20058;-84
2021/10/21 00:33:42;;;;;;;4.07;3.40;;;;;;;13.94;99.69;98698.91;5086658;28;20774;-85
2021/10/21 00:36:09;;;;;;;3.05;2.60;;;;;;;13.95;99.54;98683.97;5083008;28;20044;-87
2021/10/21 00:38:36;;;;;;;5.55;3.00;;;;;;;13.99;99.36;98667.09;5100043;28;20502;-85
2021/10/21 00:41:04;;;;;;;3.10;2.72;;;;;;;14.04;99.13;98654.50;5100067;28;20915;-87
2021/10/21 00:43:38;;;;;;;5.05;2.65;;;;;;;14.11;98.58;98640.09;5099660;28;20047;-87
2021/10/21 00:46:13;;;;;;;4.68;3.50;;;;;;;14.16;98.13;98629.31;5101775;27;20111;-87
2021/10/21 00:48:44;;;;;;;3.55;2.80;;;;;;;14.15;97.88;98610.03;5109788;28;20054;-88
2021/10/21 00:51:15;;;;;;;3.45;3.15;;;;;;;14.14;97.79;98594.34;5104592;27;20067;-87
2021/10/21 00:53:44;;;;;;;3.20;2.90;;;;;;;14.11;97.63;98590.09;5113476;27;20043;-88
2021/10/21 00:56:18;;;;;;;3.17;2.85;;;;;;;14.08;97.44;98579.78;5116474;27;20128;-86
2021/10/21 00:58:49;;;;;;;3.38;3.08;;;;;;;14.05;97.64;98569.41;5127144;27;20064;-87
2021/10/21 01:01:16;;;;;;;3.42;2.80;;;;;;;14.03;97.99;98556.34;5120077;27;20039;-87
2021/10/21 01:03:46;;;;;;;3.25;2.40;;;;;;;14.03;97.74;98537.94;5114274;27;20044;-87
2021/10/21 01:06:28;;;;;;;3.67;3.20;;;;;;;14.04;97.51;98523.84;5113536;27;20035;-87
2021/10/21 01:08:59;;;;;;;4.40;3.00;;;;;;;14.05;97.54;98514.16;5098530;28;20047;-87
2021/10/21 01:11:27;;;;;;;8.35;2.63;;;;;;;14.07;97.08;98507.88;5085267;28;20048;-89
2021/10/21 01:13:53;;;;;;;2.63;2.42;;;;;;;14.15;96.58;98499.53;5086146;27;20051;-88
2021/10/21 01:16:20;;;;;;;3.97;2.47;;;;;;;14.17;96.43;98483.66;5099932;27;20055;-89
2021/10/21 01:18:47;;;;;;;2.47;2.38;;;;;;;14.19;95.87;98479.16;5113165;27;20055;-89
2021/10/21 01:21:14;;;;;;;3.72;2.78;;;;;;;14.22;96.06;98469.31;5104961;27;20054;-87
2021/10/21 01:23:42;;;;;;;2.72;2.08;;;;;;;14.28;95.66;98452.28;5115448;27;20047;-88
2021/10/21 01:26:14;;;;;;;2.20;2.10;;;;;;;14.32;95.20;98434.53;5127638;27;20474;-88
2021/10/21 01:28:52;;;;;;;2.63;2.15;;;;;;;14.33;94.95;98431.81;5111371;27;20039;-88
2021/10/21 01:31:23;;;;;;;3.35;2.17;;;;;;;14.38;94.53;98413.97;5130606;27;20520;-86
2021/10/21 01:33:51;;;;;;;4.28;2.40;;;;;;;14.43;94.26;98395.28;5116263;27;20513;-88
2021/10/21 01:36:28;;;;;;;2.50;2.30;;;;;;;14.44;94.18;98394.31;5119499;27;20043;-88
2021/10/21 01:38:55;;;;;;;3.10;2.70;;;;;;;14.43;94.49;98382.09;5098745;27;20073;-88
2021/10/21 01:41:23;;;;;;;2.30;2.10;;;;;;;14.43;94.26;98375.97;5110944;27;20063;-86
2021/10/21 01:43:49;;;;;;;3.47;1.80;;;;;;;14.48;94.05;98364.22;5110558;27;20058;-87
2021/10/21 01:46:22;;;;;;;2.25;2.15;;;;;;;14.53;93.49;98359.50;5113272;27;20038;-88
2021/10/21 01:48:52;;;;;;;2.50;2.30;;;;;;;14.59;93.03;98366.19;5118832;27;20481;-87
2021/10/21 01:51:22;;;;;;;4.40;2.33;;;;;;;14.61;92.92;98364.31;5113633;27;20051;-87
2021/10/21 01:53:54;;;;;;;1.80;1.65;;;;;;;14.67;92.79;98379.75;5116837;27;20047;-89
2021/10/21 01:56:23;;;;;;;2.25;1.95;;;;;;;14.79;91.73;98364.13;5124430;27;20023;-88
2021/10/21 01:58:52;;;;;;;2.08;1.98;;;;;;;14.86;91.58;98354.88;5122231;27;20063;-88
2021/10/21 02:01:19;;;;;;;3.58;1.92;;;;;;;14.92;91.41;98361.56;5114506;27;20043;-86
2021/10/21 02:03:46;;;;;;;2.17;1.67;;;;;;;14.94;91.26;98357.91;5088926;28;20548;-87
2021/10/21 02:06:13;;;;;;;4.32;2.25;;;;;;;15.00;90.74;98346.13;5088391;27;20695;-88
2021/10/21 02:08:40;;;;;;;1.58;1.48;;;;;;;15.10;89.20;98341.94;5092038;28;20119;-86
2021/10/21 02:11:06;;;;;;;1.45;1.45;;;;;;;15.18;88.95;98331.75;5093391;28;20043;-88
2021/10/21 02:13:33;;;;;;;1.67;1.20;;;;;;;15.26;89.81;98330.41;5084457;28;20044;-88
2021/10/21 02:16:00;;;;;;;2.17;1.98;;;;;;;15.03;95.21;98327.47;5086669;28;20036;-89
2021/10/21 02:18:28;;;;;;;2.72;1.75;;;;;;;14.72;97.11;98332.91;5094327;28;20074;-89
2021/10/21 02:20:55;;;;;;;3.88;2.70;;;;;;;14.44;100.00;98323.22;5107486;28;20062;-89
2021/10/21 02:23:31;;;;;;;2.97;2.50;;;;;;;14.13;100.00;98311.13;5106936;28;20107;-89
2021/10/21 02:26:08;;;;;;;3.00;2.72;;;;;;;13.93;100.00;98310.56;5104723;28;20067;-88
2021/10/21 02:28:35;;;;;;;2.90;2.50;;;;;;;13.80;100.00;98313.06;5102279;28;20307;-89
2021/10/21 02:31:03;;;;;;;7.03;3.38;;;;;;;13.65;100.00;98313.97;5101015;27;20047;-87
2021/10/21 02:33:36;;;;;;;4.35;3.33;;;;;;;13.58;100.00;98295.09;5115048;28;20039;-89
2021/10/21 02:36:28;;;;;;;4.00;2.35;;;;;;;13.43;100.00;98244.31;5130239;27;20039;-89
2021/10/21 02:38:57;;;;;;;3.97;1.70;;;;;;;13.09;100.00;98225.25;5130626;28;20463;-90
2021/10/21 02:41:24;;;;;;;2.80;2.08;;;;;;;12.99;100.00;98205.69;5112018;28;20071;-90
2021/10/21 02:43:56;;;;;;;3.22;2.10;;;;;;;12.86;100.00;98200.31;5130922;27;20035;-85
2021/10/21 02:49:33;;;;;;;3.15;2.33;;;;;;;12.83;100.00;98171.63;5108154;28;20336;-90
2021/10/21 02:52:10;;;;;;;4.32;2.58;;;;;;;12.87;100.00;98162.63;5119413;27;20058;-89
2021/10/21 02:54:40;;;;;;;2.33;2.20;;;;;;;12.91;100.00;98133.44;5117783;28;20046;-88
2021/10/21 03:03:13;;;;;;;6.20;4.28;;;;;;;12.99;100.00;98104.13;5140247;27;20036;-90
2021/10/21 03:05:54;;;;;;;4.70;3.42;;;;;;;12.95;100.00;98101.78;5125572;22;20151;-90
2021/10/21 03:08:33;;;;;;;3.92;3.17;;;;;;;12.97;100.00;98103.38;5082287;28;20040;-87
2021/10/21 03:11:04;;;;;;;3.75;3.17;;;;;;;12.99;100.00;98077.03;5073144;28;20041;-91
2021/10/21 03:13:42;;;;;;;5.10;2.85;;;;;;;12.98;100.00;98049.06;5061118;28;20044;-90
2021/10/21 03:16:08;;;;;;;3.03;2.83;;;;;;;12.93;100.00;98041.47;5052462;28;20048;-87
2021/10/21 03:18:39;;;;;;;4.70;3.30;;;;;;;12.93;100.00;98054.59;5059916;28;20100;-87
2021/10/21 03:21:16;;;;;;;5.55;3.15;;;;;;;12.94;100.00;98031.81;5051001;28;20119;-88
2021/10/21 03:23:43;;;;;;;3.28;2.97;;;;;;;12.97;100.00;98013.25;5059141;28;20041;-87
2021/10/21 03:26:12;;;;;;;5.72;2.95;;;;;;;12.95;100.00;98015.97;5076447;28;20047;-88
2021/10/21 03:28:42;;;;;;;2.97;2.72;;;;;;;12.95;100.00;97988.88;5075680;28;20091;-88
2021/10/21 03:31:11;;;;;;;2.63;2.13;;;;;;;12.96;100.00;97980.91;5078247;28;20087;-89
2021/10/21 03:33:41;;;;;;;2.40;1.95;;;;;;;12.93;100.00;97952.19;5076057;28;20226;-89
2021/10/21 03:36:14;;;;;;;1.48;1.38;;;;;;;12.93;100.00;97957.44;5082310;28;20107;-88
2021/10/21 03:38:44;;;;;;;1.40;1.30;;;;;;;12.93;100.00;97993.38;5082105;28;20719;-87
2021/10/21 03:41:18;;;;;;;2.83;1.15;;;;;;;12.97;100.00;98007.97;5062803;28;20043;-88
2021/10/21 03:43:48;;;;;;;;;;;;;;;12.95;100.00;98018.59;5075428;28;20052;-87
2021/10/21 03:46:18;;;;;;;4.30;1.05;;;;;;;13.02;100.00;98021.69;5058269;28;19924;-88
2021/10/21 03:48:45;;;;;;;1.48;1.23;;;;;;;13.01;100.00;98033.97;5051086;28;20110;-88
2021/10/21 03:51:12;;;;;;;0.77;0.77;;;;;;;12.94;100.00;98021.31;5060698;28;20049;-88
2021/10/21 03:53:47;;;;;;;1.35;1.23;;;;;;;12.95;100.00;98030.88;5052200;28;20131;-89
2021/10/21 03:56:14;;;;;;;2.00;0.95;;;;;;;12.92;100.00;98052.91;5069067;28;20059;-88
2021/10/21 03:58:41;;;;;;;1.63;1.00;;;;;;;12.91;100.00;98023.19;5068550;28;20048;-88
2021/10/21 04:01:08;;;;;;;3.67;0.80;;;;;;;12.92;100.00;98042.41;5055007;28;20075;-89
2021/10/21 04:03:38;;;;;;;1.67;1.33;;;;;;;12.94;100.00;98043.16;5063926;28;20024;-89
2021/10/21 04:06:11;;;;;;;3.33;1.33;;;;;;;12.95;100.00;98046.63;5052941;28;20072;-88
2021/10/21 04:08:38;;;;;;;1.50;1.40;;;;;;;12.90;100.00;98052.16;5038993;28;20048;-87
2021/10/21 04:11:05;;;;;;;0.85;0.70;;;;;;;12.96;100.00;98045.69;5031787;28;20077;-88
2021/10/21 04:13:32;;;;;;;0.98;0.98;;;;;;;13.05;99.39;98051.22;5025277;28;20519;-87
2021/10/21 04:15:58;;;;;;;0.77;0.77;;;;;;;13.11;97.98;98057.06;5029443;28;20098;-87
2021/10/21 04:18:25;;;;;;;0.95;0.90;;;;;;;13.10;97.13;98053.56;5008821;28;20534;-88
2021/10/21 04:20:52;;;;;;;1.08;0.98;;;;;;;13.11;97.01;98088.56;5027942;28;20079;-89
2021/10/21 04:23:19;;;;;;;0.57;0.52;;;;;;;13.13;96.26;98082.28;5025605;28;20053;-87
2021/10/21 04:25:45;;;;;;;2.70;1.27;;;;;;;13.07;96.91;98090.53;5035221;28;20042;-87
2021/10/21 04:28:12;;;;;;;1.33;0.85;;;;;;;13.08;90.66;98073.84;5037278;28;20068;-88
2021/10/21 04:30:39;;;;;;;2.08;0.70;;;;;;;13.21;82.97;98098.41;5042234;28;20029;-88
2021/10/21 04:33:06;;;;;;;1.30;0.60;;;;;;;13.07;82.35;98088.75;5037947;28;20160;-88
2021/10/21 04:35:32;;;;;;;0.98;0.57;;;;;;;13.01;78.08;98099.63;5033384;28;20054;-88
2021/10/21 04:37:59;;;;;;;2.78;0.65;;;;;;;13.10;72.98;98089.50;5018764;28;20063;-87
2021/10/21 04:40:26;;;;;;;6.38;1.23;;;;;;;13.16;69.97;98108.34;5037491;28;20037;-88
2021/10/21 04:43:02;;;;;;;3.22;0.55;;;;;;;13.14;67.99;98093.63;5047583;28;20041;-89
2021/10/21 04:45:28;;;;;;;1.25;0.70;;;;;;;13.13;67.69;98071.78;5041318;28;20529;-89
2021/10/21 04:47:57;;;;;;;8.18;0.77;;;;;;;13.10;67.72;98121.84;5034068;28;20041;-87
2021/10/21 04:50:25;;;;;;;1.65;0.43;;;;;;;13.11;68.07;98120.09;5020442;28;20041;-89
2021/10/21 04:52:53;;;;;;;0.80;0.30;;;;;;;13.11;68.16;98143.72;5028525;28;20037;-89
2021/10/21 04:55:22;;;;;;;2.00;0.60;;;;;;;12.82;74.60;98115.63;5043378;28;20470;-88
2021/10/21 04:57:57;;;;;;;2.47;0.45;;;;;;;12.34;78.70;98130.66;5027426;28;20048;-87
2021/10/21 05:00:24;;;;;;;2.30;0.40;;;;;;;11.94;81.62;98127.59;5018650;28;20067;-87
2021/10/21 05:02:55;;;;;;;2.28;0.52;;;;;;;11.80;80.10;98129.22;5040201;28;20079;-88
2021/10/21 05:05:28;;;;;;;2.30;0.30;;;;;;;11.75;78.81;98118.13;5049384;28;20045;-87
2021/10/21 05:07:55;;;;;;;0.50;0.30;;;;;;;11.67;79.30;98099.38;5030464;28;20049;-89
2021/10/21 05:10:23;;;;;;;0.73;0.28;;;;;;;11.72;79.31;98132.25;5053610;28;20048;-88
2021/10/21 05:12:56;;;;;;;1.75;0.75;;;;;;;11.74;80.02;98127.75;5030890;28;20052;-89
2021/10/21 05:15:23;;;;;;;1.30;0.80;;;;;;;11.76;79.96;98130.31;5038973;28;20112;-89
2021/10/21 05:17:51;;;;;;;2.97;0.95;;;;;;;11.80;80.39;98123.97;5036060;28;20044;-88
2021/10/21 05:20:21;;;;;;;1.65;0.15;;;;;;;11.80;81.44;98118.72;5052910;28;20053;-89
2021/10/21 05:22:53;;;;;;;5.75;0.40;;;;;;;11.79;81.78;98117.03;5024644;28;20072;-88
2021/10/21 05:25:20;;;;;;;4.22;0.40;;;;;;;11.83;81.28;98123.78;5026652;28;20041;-89
2021/10/21 05:27:47;;;;;;;0.52;0.40;;;;;;;11.92;80.94;98122.44;5031780;28;20040;-88
2021/10/21 05:30:14;;;;;;;1.67;0.47;;;;;;;11.94;81.42;98111.88;5036321;28;20095;-89
2021/10/21 05:32:41;;;;;;;3.10;0.50;;;;;;;11.99;80.19;98121.19;5043484;28;20037;-89
2021/10/21 05:35:08;;;;;;;2.83;1.20;;;;;;;12.06;79.51;98098.13;5027638;28;21543;-87
2021/10/21 05:37:35;;;;;;;2.85;0.98;;;;;;;12.11;79.39;98108.34;5030684;28;20053;-89
2021/10/21 05:40:02;;;;;;;1.45;0.30;;;;;;;12.12;79.84;98105.63;5024628;28;20057;-88
2021/10/21 05:42:29;;;;;;;2.22;0.55;;;;;;;12.12;79.05;98100.38;5043388;28;20045;-88
2021/10/21 05:44:59;;;;;;;1.30;0.30;;;;;;;12.10;79.52;98107.50;5044784;28;20110;-86
2021/10/21 05:47:31;;;;;;;0.77;0.47;;;;;;;12.08;80.01;98093.63;5044037;28;20079;-88
2021/10/21 05:49:58;;;;;;;4.35;0.70;;;;;;;12.05;79.84;98097.25;5060634;28;20044;-86
2021/10/21 05:52:30;;;;;;;2.05;0.30;;;;;;;11.98;80.36;98084.56;5035874;28;20045;-88
2021/10/21 05:54:58;;;;;;;2.10;0.30;;;;;;;11.84;80.95;98080.09;5057466;28;20094;-88
2021/10/21 05:57:28;;;;;;;4.20;0.90;;;;;;;11.74;81.32;98085.81;5047508;28;20046;-88
2021/10/21 05:59:55;;;;;;;1.23;0.45;;;;;;;11.72;80.78;98084.22;5057589;28;20045;-88
2021/10/21 06:02:22;;;;;;;0.28;0.20;;;;;;;11.71;80.08;98070.28;5038350;28;20041;-88
2021/10/21 06:04:51;;;;;;;2.65;1.35;;;;;;;11.77;79.52;98087.44;5055137;28;20050;-88
2021/10/21 06:07:18;;;;;;;3.20;0.32;;;;;;;11.79;79.67;98067.22;5041660;28;20064;-88
2021/10/21 06:09:57;;;;;;;1.65;0.30;;;;;;;11.86;79.28;98092.19;5037053;28;20092;-88
2021/10/21 06:12:31;;;;;;;0.45;0.45;;;;;;;11.88;79.46;98071.97;5040890;28;20057;-87
2021/10/21 06:14:57;;;;;;;4.65;0.28;;;;;;;11.88;79.52;98068.50;5037990;28;20139;-89
2021/10/21 06:17:25;;;;;;;1.00;0.30;;;;;;;11.86;79.58;98059.88;5059617;28;20071;-88
2021/10/21 06:19:56;;;;;;;2.38;0.38;;;;;;;11.90;80.06;98067.50;5033792;28;20048;-86
2021/10/21 06:22:27;;;;;;;1.33;0.20;;;;;;;11.96;79.26;98049.75;5041108;28;20507;-87
2021/10/21 06:24:55;;;;;;;0.60;0.40;;;;;;;12.05;78.36;98049.22;5038314;28;20121;-88
2021/10/21 06:27:25;;;;;;;1.77;0.22;;;;;;;12.08;78.53;98075.28;5038109;28;20073;-88
2021/10/21 06:30:01;;;;;;;1.27;0.30;;;;;;;12.17;77.54;98068.66;5045590;28;20095;-89
2021/10/21 06:32:28;;;;;;;0.68;0.22;;;;;;;12.20;77.46;98073.72;5050095;28;20044;-87
2021/10/21 06:34:56;;;;;;;2.03;0.28;;;;;;;12.24;77.66;98085.72;5045013;28;20053;-87
2021/10/21 06:37:28;;;;;;;1.75;0.38;;;;;;;12.14;80.42;98076.72;5054537;28;20041;-87
2021/10/21 06:40:00;;;;;;;0.75;0.22;;;;;;;11.88;83.34;98086.84;5054668;28;20108;-87
2021/10/21 06:42:36;;;;;;;2.50;0.20;;;;;;;11.71;85.91;98078.13;5034806;28;20089;-88
2021/10/21 06:45:03;;;;;;;0.63;0.28;;;;;;;11.54;87.36;98078.22;5035070;28;20985;-87
2021/10/21 06:47:30;;;;;;;0.63;0.35;;;;;;;11.46;87.76;98081.25;5034360;28;20049;-88
2021/10/21 06:50:03;;;;;;;1.15;0.20;;;;;;;11.40;88.08;98074.56;5038348;28;20068;-87
2021/10/21 06:52:30;;;;;;;3.03;0.30;;;;;;;11.46;86.87;98088.25;5047715;28;20060;-87
2021/10/21 06:54:59;;;;;;;0.52;0.20;;;;;;;11.57;85.78;98071.03;5030100;28;20049;-88
2021/10/21 06:57:27;;;;;;;4.68;0.43;;;;;;;11.67;85.45;98071.38;5038004;28;20103;-88
2021/10/21 06:59:54;;;;;;;2.78;0.30;;;;;;;11.78;84.72;98056.84;5034808;28;20064;-88
2021/10/21 07:02:21;;;;;;;0.85;0.10;;;;;;;11.89;84.03;98075.44;5035847;28;20520;-87
2021/10/21 07:04:48;;;;;;;1.13;0.50;;;;;;;12.02;83.31;98086.09;5033591;28;20129;-88
2021/10/21 07:07:24;;;;;;;2.30;0.20;;;;;;;12.05;83.80;98088.56;5030128;28;20084;-89
2021/10/21 07:09:59;;;;;;;0.43;0.05;;;;;;;12.05;83.47;98088.56;5061077;28;20053;-87
2021/10/21 07:12:31;;;;;;;2.35;0.85;;;;;;;12.06;82.13;98098.97;5047925;28;20055;-88
2021/10/21 07:14:58;;;;;;;2.20;0.10;;;;;;;12.10;82.09;98086.53;5062584;28;20405;-87
2021/10/21 07:17:25;;;;;;;0.77;0.40;;;;;;;12.10;83.21;98099.63;5045808;28;20507;-87
2021/10/21 07:19:52;;;;;;;0.55;0.10;;;;;;;12.05;83.33;98106.91;5024882;28;20049;-89
2021/10/21 07:22:19;;;;;;;2.45;0.10;;;;;;;12.05;84.01;98123.47;5023532;28;20050;-86
2021/10/21 07:24:57;;;;;;;0.85;0.47;;;;;;;12.01;85.07;98118.50;5042685;28;20034;-88
2021/10/21 07:27:24;;;;;;;0.75;0.10;;;;;;;11.99;85.53;98130.84;5047858;28;20067;-89
2021/10/21 07:29:51;;;;;;;1.08;0.10;;;;;;;11.96;86.54;98141.50;5037828;28;20046;-87
2021/10/21 07:32:19;;;;;;;0.95;0.10;;;;;;;11.89;88.14;98139.19;5048911;28;20041;-87
2021/10/21 07:34:46;;;;;;;0.68;0.05;;;;;;;11.78;89.94;98146.78;5051196;28;20041;-88
2021/10/21 07:37:13;;;;;;;2.45;0.28;;;;;;;11.61;92.09;98131.97;5054108;28;20052;-87
2021/10/21 07:39:42;;;;;;;0.60;0.10;;;;;;;11.46;93.03;98146.75;5062762;28;20061;-89
2021/10/21 07:42:14;;;;;;;0.57;0.10;;;;;;;11.35;93.48;98183.13;5050955;28;20076;-88
2021/10/21 07:44:46;;;;;;;1.27;0.17;;;;;;;11.27;94.45;98172.22;5039486;28;20068;-89
2021/10/21 07:47:22;;;;;;;1.60;0.10;;;;;;;11.20;95.37;98174.31;5027521;28;20045;-86
2021/10/21 07:49:52;;;;;;;1.15;0.20;;;;;;;11.17;95.95;98170.06;5044699;28;20095;-88
2021/10/21 07:52:28;;;;;;;3.20;0.20;;;;;;;11.13;95.90;98186.84;5028843;28;20057;-88
2021/10/21 07:55:09;;;;;;;1.17;0.45;;;;;;;10.99;100.00;98192.78;5031194;28;20201;-87
2021/10/21 07:57:44;;;;;;;0.35;0.22;;;;;;;10.84;100.00;98199.63;5055529;28;20511;-87
2021/10/21 08:00:18;;;;;;;4.30;0.30;;;;;;;10.74;100.00;98196.63;5050200;28;20982;-87
2021/10/21 08:02:47;;;;;;;0.88;0.10;;;;;;;10.75;100.00;98187.00;5041982;28;20042;-88
2021/10/21 08:05:14;;;;;;;0.80;0.45;;;;;;;10.77;100.00;98206.09;5022327;28;20053;-88
2021/10/21 08:07:49;;;;;;;0.35;0.20;;;;;;;10.81;100.00;98210.25;5026847;28;20041;-89
2021/10/21 08:10:19;;;;;;;0.32;0.32;;;;;;;10.85;100.00;98253.66;5030281;28;20128;-88
2021/10/21 08:12:50;;;;;;;0.30;0.30;;;;;;;9.68;100.00;98330.41;5022334;28;20050;-90
2021/10/21 08:15:23;;;;;;;0.63;0.40;;;;;;;8.93;100.00;98386.53;5042750;28;20076;-88
2021/10/21 08:17:53;;;;;;;3.33;0.43;;;;;;;8.67;100.00;98403.16;5048497;28;20049;-87
2021/10/21 08:20:23;;;;;;;0.85;0.10;;;;;;;8.53;100.00;98407.13;5016001;28;20508;-90
2021/10/21 08:22:54;;;;;;;1.90;0.85;;;;;;;8.39;100.00;98428.44;5046321;28;20045;-89
2021/10/21 08:25:33;;;;;;;1.23;0.30;;;;;;;8.35;100.00;98437.28;5032233;28;20052;-90
2021/10/21 08:28:00;;;;;;;7.28;3.05;;;;;;;8.35;100.00;98446.88;5038932;28;20052;-90
2021/10/21 08:30:32;;;;;;;1.25;0.50;;;;;;;8.34;100.00;98459.06;5045008;28;20108;-87
2021/10/21 08:32:59;;;;;;;1.05;0.30;;;;;;;8.37;100.00;98471.13;5025568;28;20403;-89
2021/10/21 08:35:29;;;;;;;1.75;0.38;;;;;;;8.43;100.00;98483.97;5031594;28;20083;-91
2021/10/21 08:38:01;;;;;;;1.92;0.28;;;;;;;8.42;100.00;98485.72;5039569;28;20057;-89
2021/10/21 08:40:32;;;;;;;0.32;0.10;;;;;;;8.38;100.00;98510.22;5030133;28;20045;-86
2021/10/21 08:43:01;;;;;;;2.08;0.20;;;;;;;8.39;100.00;98529.28;5040682;28;20132;-89
2021/10/21 08:45:28;;;;;;;0.50;0.50;;;;;;;8.43;100.00;98547.41;5026891;28;20541;-86
2021/10/21 08:47:58;;;;;;;2.53;0.20;;;;;;;8.40;100.00;98550.09;5029541;28;20068;-88
2021/10/21 08:50:28;;;;;;;5.10;0.30;;;;;;;8.43;100.00;98570.00;5037233;28;20049;-91
2021/10/21 08:52:54;;;;;;;1.20;0.10;;;;;;;8.43;100.00;98588.25;5031884;28;20107;-87
2021/10/21 08:55:25;;;;;;;0.20;0.17;;;;;;;8.44;100.00;98603.00;5047852;28;20612;-88
2021/10/21 08:57:52;;;;;;;0.93;0.40;;;;;;;8.48;100.00;98622.03;5046649;28;20523;-90
2021/10/21 09:00:23;;;;;;;1.40;0.30;;;;;;;8.47;100.00;98625.53;5035482;28;20072;-88
2021/10/21 09:03:06;;;;;;;0.70;0.30;;;;;;;8.50;100.00;98660.19;5018752;28;20083;-90
2021/10/21 09:05:37;;;;;;;0.63;0.47;;;;;;;8.47;100.00;98673.31;5060005;28;20055;-88
2021/10/21 09:08:14;;;;;;;0.30;0.20;;;;;;;8.46;100.00;98702.94;5041713;28;20290;-89
2021/10/21 09:10:53;;;;;;;0.50;0.30;;;;;;;8.50;100.00;98727.13;5032693;28;20403;-89
2021/10/21 09:13:31;;;;;;;0.20;0.20;;;;;;;8.50;100.00;98729.72;5030744;28;20053;-90
2021/10/21 09:18:49;;;;;;;0.47;0.47;;;;;;;8.40;100.00;98773.47;5055050;28;20033;-87
2021/10/21 09:24:39;;;;;;;2.85;0.30;;;;;;;8.43;100.00;98800.31;5044609;28;20049;-88
2021/10/21 09:27:12;;;;;;;1.17;0.30;;;;;;;8.46;100.00;98807.22;5050345;28;20041;-89
2021/10/21 09:29:50;;;;;;;2.97;0.52;;;;;;;8.52;100.00;98830.50;5043776;28;20037;-90
2021/10/21 09:32:31;;;;;;;0.40;0.40;;;;;;;8.58;100.00;98832.94;5014900;28;20076;-89
2021/10/21 09:35:02;;;;;;;2.20;0.55;;;;;;;8.63;100.00;98860.63;5031729;28;20047;-90
2021/10/21 09:37:36;;;;;;;1.17;0.35;;;;;;;8.72;100.00;98863.81;5047200;28;20042;-90
2021/10/21 09:40:19;;;;;;;0.73;0.30;;;;;;;8.83;100.00;98870.47;5050581;28;20061;-88
2021/10/21 09:43:07;;;;;;;3.08;0.47;;;;;;;8.92;100.00;98878.00;5049318;28;20055;-88
2021/10/21 09:45:43;;;;;;;1.95;0.63;;;;;;;8.96;100.00;98905.72;5049366;28;20048;-88
2021/10/21 09:48:32;;;;;;;0.32;0.32;;;;;;;9.02;100.00;98908.16;5036148;28;20073;-88
2021/10/21 09:51:04;;;;;;;1.83;0.65;;;;;;;9.06;100.00;98914.09;5036198;28;20060;-89
2021/10/21 09:53:39;;;;;;;1.17;0.43;;;;;;;9.12;100.00;98913.91;5040533;28;20049;-86
2021/10/21 09:56:12;;;;;;;5.07;0.50;;;;;;;9.29;100.00;98952.56;5035806;28;20053;-90
2021/10/21 09:58:43;;;;;;;0.55;0.30;;;;;;;9.32;100.00;98925.50;5033777;28;20045;-87
2021/10/21 10:01:21;;;;;;;2.17;0.50;;;;;;;9.39;100.00;98929.63;5044616;28;20063;-90
2021/10/21 10:03:52;;;;;;;1.13;0.47;;;;;;;9.44;100.00;98938.19;5052350;28;20037;-89
2021/10/21 10:06:20;;;;;;;4.38;0.70;;;;;;;9.53;100.00;98950.94;5027443;28;21042;-88
2021/10/21 10:08:48;;;;;;;1.35;0.50;;;;;;;9.54;100.00;98962.22;5025121;28;20553;-90
2021/10/21 10:11:22;;;;;;;1.83;0.40;;;;;;;9.51;100.00;98970.19;5043720;28;20162;-88
2021/10/21 10:13:54;;;;;;;0.88;0.50;;;;;;;9.26;100.00;98982.22;5058659;28;20048;-91
2021/10/21 10:16:26;;;;;;;1.23;0.80;;;;;;;9.13;100.00;98993.94;5048181;28;20041;-91
2021/10/21 10:18:56;;;;;;;2.63;0.52;;;;;;;8.98;100.00;98991.78;5045477;28;20075;-92
2021/10/21 10:21:38;;;;;;;1.20;0.60;;;;;;;8.91;100.00;99007.63;5044875;28;20139;-89
2021/10/21 10:24:12;;;;;;;0.73;0.52;;;;;;;8.87;100.00;99010.38;5029285;28;20945;-88
2021/10/21 10:26:57;;;;;;;1.88;1.00;;;;;;;9.11;100.00;99032.28;5026634;28;20037;-88
2021/10/21 10:29:33;;;;;;;1.60;0.63;;;;;;;9.14;100.00;99033.94;5027986;28;20038;-90
2021/10/21 10:32:37;;;;;;;3.85;0.88;;;;;;;9.33;100.00;99034.28;5038085;28;20052;-90
2021/10/21 10:35:17;;;;;;;3.88;1.38;;;;;;;9.61;100.00;99023.84;5040345;28;20052;-89
2021/10/21 10:37:48;;;;;;;1.08;0.77;;;;;;;9.77;100.00;99032.91;5036293;28;20059;-90
2021/10/21 10:40:16;;;;;;;1.80;0.98;;;;;;;9.89;100.00;99034.25;5022902;28;20046;-88
2021/10/21 10:42:48;;;;;;;6.40;0.80;;;;;;;10.13;100.00;99047.47;5037587;28;20042;-88
2021/10/21 10:45:15;;;;;;;5.25;1.83;;;;;;;10.29;100.00;99039.94;5049575;28;20100;-88
2021/10/21 10:47:47;;;;;;;7.85;1.67;;;;;;;10.37;100.00;99052.81;5035268;28;20060;-88
2021/10/21 10:50:23;;;;;;;7.95;1.10;;;;;;;10.54;97.62;99041.75;5030209;28;20048;-87
2021/10/21 10:53:00;;;;;;;3.80;1.40;;;;;;;10.78;96.74;99047.91;5056305;28;20060;-88
2021/10/21 10:55:47;;;;;;;7.45;1.00;;;;;;;10.98;95.15;99048.94;5049856;28;20069;-89
2021/10/21 10:58:16;;;;;;;5.93;1.13;;;;;;;11.20;89.92;99067.34;5046099;28;20041;-90
2021/10/21 11:01:00;;;;;;;6.05;0.98;;;;;;;11.40;89.11;99079.69;5025578;28;20064;-90
2021/10/21 11:03:35;;;;;;;4.73;1.13;;;;;;;11.49;86.90;99089.81;5029333;28;20047;-89
2021/10/21 11:06:17;;;;;;;6.18;0.90;;;;;;;11.45;87.09;99082.16;5040160;28;20092;-88
2021/10/21 11:09:03;;;;;;;7.05;1.55;;;;;;;11.39;87.19;99086.69;5029680;28;20056;-91
2021/10/21 11:11:55;;;;;;;5.10;1.33;;;;;;;11.33;87.32;99089.53;5049389;28;20060;-90
2021/10/21 11:14:43;;;;;;;4.57;1.25;;;;;;;11.29;88.66;99114.16;5039502;28;20136;-90
2021/10/21 11:17:13;;;;;;;0.90;0.30;;;;;;;11.12;89.22;99120.00;5029077;28;20056;-88
2021/10/21 11:19:42;;;;;;;6.68;0.73;;;;;;;10.88;90.14;99127.78;5028472;28;20451;-89
2021/10/21 11:22:11;;;;;;;5.25;1.13;;;;;;;10.88;88.77;99133.03;5040162;28;20496;-89
2021/10/21 11:24:45;;;;;;;6.10;1.50;;;;;;;11.05;89.27;99142.91;5043691;28;20057;-88
2021/10/21 11:27:13;;;;;;;6.00;0.82;;;;;;;11.22;85.34;99144.97;5043566;28;20049;-88
2021/10/21 11:29:40;;;;;;;5.50;1.05;;;;;;;11.28;85.17;99164.81;5031317;28;20099;-89
2021/10/21 11:32:11;;;;;;;5.38;1.02;;;;;;;11.25;82.68;99157.06;5027428;28;20044;-87
2021/10/21 11:34:39;;;;;;;3.42;1.20;;;;;;;11.38;81.42;99173.19;5016953;28;20065;-89
2021/10/21 11:37:06;;;;;;;2.63;1.00;;;;;;;11.67;79.16;99181.78;5043534;28;20052;-90
2021/10/21 11:39:35;;;;;;;6.20;1.05;;;;;;;11.83;78.07;99168.94;5030821;28;20041;-89
2021/10/21 11:42:11;;;;;;;4.50;1.10;;;;;;;11.71;76.96;99178.97;5037769;28;21092;-88
2021/10/21 11:44:40;;;;;;;3.22;0.98;;;;;;;11.64;76.56;99215.94;5042147;28;20048;-89
2021/10/21 11:47:09;;;;;;;3.28;0.70;;;;;;;11.87;75.23;99202.00;5038379;28;20049;-88
2021/10/21 11:49:38;;;;;;;3.35;0.60;;;;;;;11.90;75.09;99200.13;5017775;28;20044;-86
2021/10/21 11:52:11;;;;;;;3.67;0.60;;;;;;;11.72;75.03;99195.53;5039637;28;20041;-89
2021/10/21 11:54:39;;;;;;;2.65;0.77;;;;;;;11.65;75.45;99199.31;5020209;28;20397;-87
2021/10/21 11:57:07;;;;;;;5.35;1.13;;;;;;;11.72;75.26;99191.19;5057008;28;20052;-87
2021/10/21 11:59:38;;;;;;;1.65;0.80;;;;;;;12.04;74.43;99201.38;5027727;28;20121;-87
2021/10/21 12:02:18;;;;;;;4.22;1.23;;;;;;;12.35;71.86;99216.78;5027805;28;20049;-89
2021/10/21 12:04:53;;;;;;;6.30;1.02;;;;;;;12.33;70.37;99210.78;5050352;28;20049;-90